Time;durP1;ratioP1;P1;durP2;ratioP2;P2;SDS_P1;SDS_P2;PMS_P1;PMS_P2;Temp;Humidity;BMP_temperature;BMP_pressure;BME280_temperature;BME280_humidity;BME280_pressure;Samples;Min_cycle;Max_cycle;Signal;HPM_P1;HPM_P2
2022/02/20 00:01:25;;;;;;;6.53;1.30;;;5.60;50.20;;;4.26;54.03;97763.59;5044157;28;20906;-84
2022/02/20 00:03:52;;;;;;;4.70;1.40;;;5.60;50.30;;;4.01;56.15;97730.84;5037361;28;20526;-84
2022/02/20 00:06:21;;;;;;;3.70;1.40;;;5.60;51.00;;;4.23;55.32;97772.78;5035489;28;20434;-84
2022/02/20 00:08:48;;;;;;;3.90;1.57;;;5.60;50.80;;;4.18;54.80;97745.78;5036141;28;20434;-80
2022/02/20 00:11:15;;;;;;;3.10;1.67;;;5.60;50.90;;;4.11;58.29;97747.50;5034813;28;21000;-83
2022/02/20 00:13:42;;;;;;;3.53;1.10;;;5.60;52.30;;;4.29;55.30;97765.03;5037416;28;20483;-81
2022/02/20 00:16:09;;;;;;;2.33;1.33;;;5.70;51.10;;;4.27;55.21;97762.56;5055073;28;20446;-80
2022/02/20 00:18:36;;;;;;;6.67;1.30;;;5.60;51.20;;;4.24;56.02;97763.75;5055171;28;20477;-81
2022/02/20 00:21:03;;;;;;;4.00;1.57;;;5.60;51.60;;;4.10;56.67;97749.34;5044603;28;20443;-83
2022/02/20 00:23:31;;;;;;;3.47;1.07;;;5.60;52.00;;;4.06;58.65;97749.88;5039266;28;20561;-83
2022/02/20 00:25:58;;;;;;;4.20;1.67;;;5.50;53.10;;;3.97;60.09;97767.84;5036539;28;20500;-85
2022/02/20 00:28:25;;;;;;;3.00;1.20;;;5.40;53.80;;;4.01;59.94;97769.13;5036618;28;20427;-86
2022/02/20 00:30:52;;;;;;;2.70;1.30;;;5.40;54.30;;;3.90;60.72;97773.06;5035683;28;20850;-85
2022/02/20 00:33:20;;;;;;;5.50;1.27;;;5.40;54.50;;;3.81;61.38;97758.09;5035103;28;20512;-84
2022/02/20 00:35:47;;;;;;;5.00;2.43;;;5.30;54.90;;;3.89;61.80;97759.88;5035653;28;20504;-83
2022/02/20 00:38:15;;;;;;;2.40;1.50;;;5.30;55.50;;;3.60;62.67;97727.50;5035580;28;20435;-87
2022/02/20 00:40:44;;;;;;;2.40;1.30;;;5.20;56.10;;;3.66;65.27;97772.22;5040374;28;20482;-86
2022/02/20 00:43:12;;;;;;;2.50;1.23;;;5.10;57.40;;;3.36;67.67;97750.69;5039946;28;20530;-85
2022/02/20 00:45:39;;;;;;;4.03;1.17;;;4.90;59.20;;;3.26;68.79;97760.75;5040849;28;20761;-86
2022/02/20 00:48:06;;;;;;;5.47;1.17;;;4.70;61.00;;;2.72;70.51;97684.94;5040897;28;20458;-85
2022/02/20 00:50:33;;;;;;;2.40;1.10;;;4.60;62.50;;;2.93;72.76;97759.09;5035263;28;20813;-86
2022/02/20 00:53:01;;;;;;;2.90;1.90;;;4.40;65.30;;;2.90;73.39;97762.09;5036428;28;20973;-87
2022/02/20 00:55:28;;;;;;;4.27;1.97;;;4.40;67.00;;;2.77;74.58;97761.81;5036730;28;20621;-87
2022/02/20 00:57:57;;;;;;;2.03;1.30;;;4.30;69.20;;;2.64;75.42;97765.00;5053022;28;20490;-86
2022/02/20 01:00:24;;;;;;;6.00;1.67;;;4.20;70.40;;;2.62;76.48;97762.53;5047669;28;20506;-86
2022/02/20 01:02:51;;;;;;;6.97;1.43;;;4.10;72.20;;;2.40;75.81;97724.06;5055884;28;20446;-84
2022/02/20 01:05:19;;;;;;;3.10;1.20;;;4.10;72.60;;;2.55;76.57;97738.38;5034925;28;20539;-84
2022/02/20 01:07:46;;;;;;;5.70;1.37;;;4.10;73.40;;;2.43;76.76;97734.38;5035127;28;20474;-84
2022/02/20 01:10:16;;;;;;;4.73;2.10;;;4.00;73.80;;;2.53;78.13;97759.03;5036031;28;20477;-84
2022/02/20 01:12:44;;;;;;;9.20;2.33;;;4.00;75.00;;;2.57;77.65;97756.84;5035121;28;20770;-84
2022/02/20 01:15:14;;;;;;;3.97;1.30;;;4.00;75.50;;;2.51;78.09;97752.19;5034472;28;20438;-84
2022/02/20 01:17:42;;;;;;;3.80;1.30;;;4.00;75.90;;;2.50;77.99;97770.06;5034131;28;20942;-84
2022/02/20 01:20:11;;;;;;;6.17;1.33;;;4.00;75.90;;;2.34;79.04;97746.06;5051246;28;20438;-84
2022/02/20 01:22:38;;;;;;;6.50;1.30;;;3.90;76.30;;;2.43;78.87;97744.19;5035627;28;20435;-84
2022/02/20 01:25:06;;;;;;;3.27;1.40;;;3.90;76.90;;;1.98;79.40;97678.81;5035000;28;20477;-84
2022/02/20 01:27:33;;;;;;;4.13;1.37;;;3.90;77.60;;;2.38;79.62;97737.56;5038084;28;20545;-84
2022/02/20 01:30:00;;;;;;;2.83;1.37;;;3.80;77.60;;;2.35;80.05;97731.72;5035206;28;20534;-82
2022/02/20 01:32:29;;;;;;;7.80;1.80;;;3.80;78.10;;;2.32;80.14;97716.06;5034512;28;20484;-83
2022/02/20 01:34:56;;;;;;;3.00;1.20;;;3.80;78.90;;;2.36;79.21;97715.56;5033982;28;20948;-84
2022/02/20 01:37:23;;;;;;;4.40;1.60;;;3.80;77.80;;;2.40;79.17;97714.22;5036266;28;20477;-84
2022/02/20 01:39:50;;;;;;;2.50;1.40;;;3.90;78.00;;;2.43;78.79;97706.88;5033824;28;20435;-82
2022/02/20 01:42:17;;;;;;;2.40;1.50;;;3.90;77.90;;;2.39;79.12;97722.41;5033512;28;20461;-84
2022/02/20 01:44:44;;;;;;;2.17;1.13;;;3.90;77.80;;;2.34;79.82;97712.25;5035342;28;20533;-84
2022/02/20 01:47:14;;;;;;;3.30;1.40;;;3.80;78.80;;;2.31;79.33;97712.59;5039264;28;20443;-87
2022/02/20 01:49:43;;;;;;;4.30;1.23;;;3.80;78.10;;;2.40;79.42;97714.22;5040972;28;20462;-84
2022/02/20 01:52:10;;;;;;;7.73;1.50;;;3.90;78.10;;;2.37;80.18;97698.56;5040010;28;20501;-87
2022/02/20 01:54:39;;;;;;;3.73;1.33;;;3.80;78.80;;;2.43;79.30;97681.06;5037171;28;20443;-86
2022/02/20 01:57:07;;;;;;;3.57;1.23;;;3.90;78.30;;;2.41;78.96;97691.06;5036835;28;20450;-85
2022/02/20 01:59:34;;;;;;;2.67;1.30;;;3.90;77.90;;;2.31;79.64;97667.25;5033896;28;20445;-84
2022/02/20 02:02:01;;;;;;;8.93;2.10;;;3.90;78.40;;;2.19;80.01;97657.97;5034389;28;20473;-85
2022/02/20 02:04:28;;;;;;;4.43;1.93;;;3.90;78.50;;;2.42;79.02;97684.72;5035159;28;20423;-85
2022/02/20 02:06:57;;;;;;;6.57;1.70;;;3.90;78.30;;;2.45;79.14;97700.38;5035413;28;20913;-85
2022/02/20 02:09:24;;;;;;;2.67;1.60;;;3.90;78.30;;;2.48;79.37;97705.34;5033841;28;20442;-85
2022/02/20 02:11:51;;;;;;;4.80;1.40;;;3.90;78.30;;;2.36;79.25;97682.75;5033941;28;21005;-85
2022/02/20 02:14:18;;;;;;;4.43;1.83;;;3.90;78.00;;;2.31;79.78;97706.41;5033785;28;20538;-84
2022/02/20 02:16:45;;;;;;;4.00;1.37;;;3.80;78.60;;;2.06;80.35;97679.81;5034704;28;20522;-83
2022/02/20 02:19:12;;;;;;;3.10;1.33;;;3.70;79.40;;;2.35;80.07;97705.06;5034433;28;20506;-85
2022/02/20 02:21:40;;;;;;;3.27;1.60;;;3.80;78.80;;;2.32;79.60;97689.41;5042227;28;20475;-85
2022/02/20 02:24:09;;;;;;;1.90;1.30;;;3.80;78.90;;;2.10;79.47;97641.97;5043021;28;20454;-85
2022/02/20 02:26:37;;;;;;;5.60;1.50;;;3.90;78.40;;;2.36;79.27;97701.41;5036699;28;20470;-84
2022/02/20 02:29:04;;;;;;;4.20;1.73;;;3.90;78.50;;;2.50;79.89;97706.03;5036030;28;20463;-84
2022/02/20 02:31:31;;;;;;;2.93;1.63;;;3.90;79.10;;;2.46;79.66;97688.69;5035736;28;20439;-84
2022/02/20 02:33:59;;;;;;;7.53;1.37;;;4.00;78.90;;;2.58;79.21;97696.34;5033871;28;20541;-84
2022/02/20 02:36:26;;;;;;;2.73;1.20;;;4.00;78.30;;;2.62;78.01;97697.66;5035450;28;20785;-84
2022/02/20 02:38:53;;;;;;;2.93;1.43;;;4.10;77.90;;;2.50;78.12;97668.72;5035165;28;20447;-84
2022/02/20 02:41:22;;;;;;;4.37;1.60;;;4.10;77.60;;;2.46;79.36;97686.03;5038084;28;20473;-83
2022/02/20 02:43:51;;;;;;;2.93;1.07;;;3.90;78.20;;;2.60;78.56;97679.16;5037064;28;20496;-85
2022/02/20 02:46:19;;;;;;;6.13;1.77;;;4.00;78.10;;;2.65;78.61;97694.63;5037859;28;20465;-84
2022/02/20 02:48:49;;;;;;;4.33;1.70;;;4.10;77.90;;;2.61;78.75;97693.31;5034002;28;20426;-85
2022/02/20 02:51:17;;;;;;;4.23;1.50;;;4.10;78.20;;;2.65;79.23;97689.28;5035032;28;20461;-84
2022/02/20 02:53:44;;;;;;;6.17;1.43;;;4.10;78.20;;;2.70;78.23;97694.97;5035616;28;20550;-83
2022/02/20 02:56:11;;;;;;;7.10;1.47;;;4.10;77.60;;;2.75;78.67;97684.59;5035531;28;20469;-84
2022/02/20 02:58:39;;;;;;;3.60;1.47;;;4.20;77.80;;;2.79;77.18;97679.75;5034377;28;20441;-86
2022/02/20 03:01:07;;;;;;;2.10;1.20;;;4.20;77.00;;;2.56;77.71;97653.81;5043564;28;20434;-85
2022/02/20 03:03:33;;;;;;;3.07;1.20;;;4.20;77.10;;;2.83;77.37;97673.91;5052645;28;20427;-84
2022/02/20 03:06:00;;;;;;;3.87;1.40;;;4.30;77.20;;;2.79;77.59;97679.75;5051712;28;20438;-85
2022/02/20 03:08:28;;;;;;;3.23;1.60;;;4.30;77.10;;;2.77;78.48;97682.59;5035076;28;20478;-86
2022/02/20 03:10:56;;;;;;;4.70;1.80;;;4.20;77.70;;;2.64;77.52;97658.28;5036913;28;20434;-86
2022/02/20 03:13:24;;;;;;;4.83;1.07;;;4.30;77.30;;;2.38;77.75;97614.09;5039124;28;20469;-85
2022/02/20 03:15:53;;;;;;;2.63;1.40;;;4.30;77.00;;;2.91;76.47;97682.84;5036657;28;20855;-86
2022/02/20 03:18:20;;;;;;;5.10;1.23;;;4.40;76.80;;;2.89;77.00;97692.88;5038575;28;20434;-85
2022/02/20 03:20:47;;;;;;;3.50;1.33;;;4.40;76.80;;;2.90;77.32;97671.38;5037814;28;20481;-85
2022/02/20 03:23:14;;;;;;;4.27;0.90;;;4.40;76.80;;;2.90;77.12;97671.38;5053742;28;20857;-88
2022/02/20 03:25:41;;;;;;;4.03;1.43;;;4.30;76.80;;;2.79;77.48;97669.91;5021419;28;20439;-86
2022/02/20 03:28:08;;;;;;;3.33;1.17;;;4.30;77.10;;;2.62;77.18;97638.97;5037902;28;20512;-87
2022/02/20 03:30:35;;;;;;;5.30;1.60;;;4.40;76.80;;;2.96;76.57;97702.69;5038935;28;20445;-87
2022/02/20 03:33:03;;;;;;;2.30;1.07;;;4.40;76.60;;;3.00;77.10;97716.53;5039258;28;20472;-88
2022/02/20 03:35:30;;;;;;;1.33;1.07;;;4.40;76.90;;;3.04;76.71;97715.16;5037673;28;20935;-85
2022/02/20 03:37:57;;;;;;;2.73;1.23;;;4.50;77.10;;;3.13;77.79;97715.94;5036284;28;20526;-85
2022/02/20 03:40:25;;;;;;;4.00;1.20;;;4.50;77.40;;;3.16;77.96;97730.78;5037385;28;20466;-86
2022/02/20 03:42:52;;;;;;;6.70;1.70;;;4.60;77.70;;;3.19;77.85;97717.94;5038316;28;20522;-84
2022/02/20 03:45:20;;;;;;;3.97;1.50;;;4.60;77.40;;;3.19;77.93;97722.41;5038365;28;20678;-86
2022/02/20 03:47:47;;;;;;;3.33;1.70;;;4.60;77.70;;;3.12;78.38;97722.28;5054808;28;20426;-85
2022/02/20 03:50:15;;;;;;;3.53;1.30;;;4.60;77.90;;;3.09;77.93;97710.13;5041852;28;20469;-85
2022/02/20 03:52:42;;;;;;;4.83;1.37;;;4.60;78.10;;;3.16;78.74;97706.75;5038582;28;20550;-85
2022/02/20 03:55:10;;;;;;;1.27;1.07;;;4.70;78.40;;;2.87;78.55;97652.19;5038690;28;20447;-85
2022/02/20 03:57:38;;;;;;;1.20;1.10;;;4.70;78.40;;;3.37;78.02;97709.63;5037611;28;20804;-85
2022/02/20 04:00:10;;;;;;;2.40;1.23;;;4.70;78.30;;;3.48;77.10;97720.91;5041532;28;20431;-83
2022/02/20 04:02:37;;;;;;;4.17;1.53;;;4.80;77.50;;;3.40;77.09;97706.59;5058201;28;20441;-82
2022/02/20 04:05:06;;;;;;;2.90;1.10;;;4.90;77.30;;;3.41;76.86;97704.75;5056764;28;20450;-82
2022/02/20 04:07:34;;;;;;;4.30;1.60;;;4.90;77.40;;;3.59;77.01;97711.66;5039312;28;20435;-83
2022/02/20 04:10:01;;;;;;;7.87;1.30;;;4.90;77.20;;;3.56;77.16;97701.31;5037441;28;20442;-83
2022/02/20 04:12:30;;;;;;;1.50;0.77;;;5.00;77.50;;;3.68;75.85;97711.41;5036342;28;20470;-82
2022/02/20 04:14:57;;;;;;;5.10;1.37;;;5.10;76.60;;;3.68;76.19;97711.41;5036378;28;20435;-83
2022/02/20 04:17:25;;;;;;;4.30;1.23;;;5.10;76.70;;;3.86;74.84;97731.66;5036983;28;20474;-83
2022/02/20 04:19:54;;;;;;;2.50;1.40;;;5.20;76.10;;;3.92;75.29;97738.13;5035970;28;20439;-84
2022/02/20 04:22:21;;;;;;;2.20;1.20;;;5.30;76.10;;;3.97;73.99;97739.25;5034470;28;20535;-83
2022/02/20 04:24:50;;;;;;;1.53;1.00;;;5.30;75.50;;;4.01;74.53;97733.53;5036220;28;20850;-84
2022/02/20 04:27:17;;;;;;;4.83;1.20;;;5.40;75.50;;;4.08;74.28;97734.50;5036127;28;20466;-83
2022/02/20 04:29:44;;;;;;;3.57;1.27;;;5.40;75.40;;;4.11;74.34;97742.13;5035277;28;20558;-86
2022/02/20 04:32:10;;;;;;;1.57;1.00;;;5.50;75.20;;;4.11;73.95;97737.63;5035908;28;20485;-85
2022/02/20 04:34:39;;;;;;;4.67;1.33;;;5.50;75.20;;;4.09;74.09;97758.38;5036697;28;20458;-85
2022/02/20 04:37:06;;;;;;;2.37;1.13;;;5.50;75.30;;;4.14;74.70;97755.16;5035082;28;20435;-85
2022/02/20 04:39:33;;;;;;;7.27;1.43;;;5.50;75.50;;;4.14;73.50;97757.00;5035348;28;20466;-84
2022/02/20 04:42:01;;;;;;;4.13;1.17;;;5.50;75.20;;;4.15;73.46;97750.66;5035990;28;20442;-82
2022/02/20 04:44:28;;;;;;;3.83;1.03;;;5.50;75.30;;;4.07;74.48;97748.88;5035014;28;20946;-86
2022/02/20 04:46:55;;;;;;;5.40;1.33;;;5.50;75.40;;;4.14;73.61;97754.31;5035307;28;20471;-83
2022/02/20 04:49:22;;;;;;;5.67;1.63;;;5.50;75.30;;;4.13;74.23;97766.84;5034771;28;20442;-85
2022/02/20 04:51:49;;;;;;;4.73;1.00;;;5.50;75.40;;;4.00;73.55;97742.56;5034396;28;20439;-84
2022/02/20 04:54:16;;;;;;;4.70;1.30;;;5.60;75.30;;;4.11;73.93;97772.41;5034448;28;20866;-85
2022/02/20 04:56:44;;;;;;;3.70;1.00;;;5.50;75.30;;;4.16;74.33;97760.31;5034862;28;20541;-84
2022/02/20 04:59:14;;;;;;;2.97;1.17;;;5.50;75.20;;;4.12;73.80;97770.53;5035670;28;20435;-84
2022/02/20 05:01:42;;;;;;;2.73;1.10;;;5.50;75.20;;;4.11;73.97;97774.22;5034671;28;20477;-84
2022/02/20 05:04:09;;;;;;;5.27;1.10;;;5.50;75.20;;;4.16;74.46;97781.72;5036046;28;20907;-83
2022/02/20 05:06:36;;;;;;;6.00;1.30;;;5.50;75.50;;;4.10;74.38;97780.59;5035488;28;20501;-83
2022/02/20 05:09:04;;;;;;;5.20;1.17;;;5.50;75.50;;;4.15;74.42;97788.91;5036590;28;20526;-82
2022/02/20 05:11:31;;;;;;;1.73;1.00;;;5.50;75.30;;;4.09;74.65;97789.63;5034898;28;20523;-83
2022/02/20 05:14:00;;;;;;;4.33;1.17;;;5.40;75.40;;;4.10;74.57;97777.91;5033711;28;20560;-83
2022/02/20 05:16:32;;;;;;;3.17;1.10;;;5.50;75.30;;;4.12;74.31;97786.59;5034418;28;20829;-83
2022/02/20 05:18:59;;;;;;;8.30;1.30;;;5.50;75.80;;;4.16;74.17;97790.56;5034581;28;20469;-85
2022/02/20 05:21:26;;;;;;;3.00;1.10;;;5.50;75.50;;;4.08;74.03;97785.28;5035163;28;20442;-84
2022/02/20 05:23:53;;;;;;;3.50;1.10;;;5.50;75.50;;;3.81;75.04;97737.56;5035726;28;20432;-85
2022/02/20 05:26:20;;;;;;;4.47;1.33;;;5.50;75.60;;;4.18;75.51;97796.59;5050339;28;20705;-85
2022/02/20 05:28:47;;;;;;;2.87;1.37;;;5.60;76.20;;;4.18;74.70;97801.94;5034281;28;20473;-82
2022/02/20 05:31:14;;;;;;;2.83;1.10;;;5.50;75.80;;;4.19;74.52;97798.25;5035047;28;20853;-84
2022/02/20 05:33:43;;;;;;;3.97;0.90;;;5.50;75.80;;;4.29;73.99;97799.81;5034867;28;20475;-85
2022/02/20 05:36:10;;;;;;;4.10;1.23;;;5.60;75.50;;;4.23;74.83;97799.53;5033678;28;20450;-83
2022/02/20 05:38:37;;;;;;;3.40;1.03;;;5.60;76.00;;;4.24;74.73;97803.03;5032996;28;20522;-76
2022/02/20 05:41:04;;;;;;;4.10;1.27;;;5.60;75.60;;;4.24;74.36;97795.84;5032620;28;20474;-74
2022/02/20 05:43:31;;;;;;;2.20;1.10;;;5.60;75.60;;;4.27;74.62;97809.88;5034199;28;20960;-74
2022/02/20 05:45:58;;;;;;;1.93;1.30;;;5.60;75.70;;;4.19;75.34;97808.09;5033763;28;20813;-74
2022/02/20 05:48:25;;;;;;;2.83;1.47;;;5.60;75.80;;;4.20;74.83;97802.56;5032692;28;20478;-75
2022/02/20 05:50:53;;;;;;;2.63;1.37;;;5.50;75.80;;;4.18;75.16;97811.78;5032895;28;20534;-74
2022/02/20 05:53:20;;;;;;;6.57;1.20;;;5.60;76.10;;;4.19;74.80;97805.41;5033634;28;20810;-73
2022/02/20 05:55:48;;;;;;;2.80;1.00;;;5.60;76.10;;;4.23;75.38;97833.47;5033886;28;20521;-74
2022/02/20 05:58:16;;;;;;;6.93;1.57;;;5.60;76.20;;;3.99;76.00;97813.94;5033851;28;20482;-75
2022/02/20 06:00:43;;;;;;;4.33;1.00;;;5.50;76.50;;;4.02;77.07;97834.97;5032807;28;20778;-74
2022/02/20 06:03:10;;;;;;;1.13;1.03;;;5.50;76.80;;;4.01;76.55;97811.91;5032307;28;20447;-74
2022/02/20 06:05:37;;;;;;;3.77;1.03;;;5.50;77.00;;;3.69;77.17;97790.56;5032511;28;20446;-74
2022/02/20 06:08:08;;;;;;;2.30;1.07;;;5.40;77.10;;;3.77;75.95;97772.81;5034750;28;20452;-74
2022/02/20 06:10:35;;;;;;;2.40;1.33;;;5.50;77.00;;;4.09;77.31;97848.44;5035080;28;20596;-74
2022/02/20 06:13:03;;;;;;;1.47;1.00;;;5.50;77.20;;;4.15;76.76;97861.09;5033039;28;20443;-74
2022/02/20 06:15:30;;;;;;;5.10;1.30;;;5.50;77.10;;;4.16;75.97;97862.75;5032380;28;20439;-74
2022/02/20 06:17:57;;;;;;;3.17;1.00;;;5.50;77.00;;;4.09;76.26;97851.13;5032809;28;20872;-75
2022/02/20 06:20:24;;;;;;;1.63;1.10;;;5.50;77.00;;;4.19;76.26;97862.44;5033761;28;20445;-74
2022/02/20 06:22:52;;;;;;;2.60;1.37;;;5.60;77.20;;;4.21;76.31;97870.25;5033961;28;20458;-74
2022/02/20 06:25:21;;;;;;;2.53;0.83;;;5.50;77.20;;;4.22;76.49;97862.06;5034486;28;20455;-85
2022/02/20 06:27:48;;;;;;;3.60;1.23;;;5.60;77.20;;;4.27;75.97;97864.22;5035208;28;20894;-85
2022/02/20 06:30:15;;;;;;;3.80;1.20;;;5.60;77.20;;;4.33;76.05;97862.66;5037087;28;20439;-82
2022/02/20 06:32:42;;;;;;;4.50;1.70;;;5.70;77.10;;;4.35;75.88;97864.13;5034175;28;20450;-81
2022/02/20 06:35:09;;;;;;;2.83;1.27;;;5.70;77.20;;;4.36;76.76;97849.75;5032499;28;20503;-82
2022/02/20 06:37:36;;;;;;;4.07;1.80;;;5.70;77.20;;;4.35;76.67;97856.09;5032610;28;20836;-83
2022/02/20 06:40:04;;;;;;;3.37;1.40;;;5.70;77.10;;;4.42;75.99;97850.06;5034783;28;20504;-83
2022/02/20 06:42:33;;;;;;;2.13;1.00;;;5.70;77.00;;;4.37;75.49;97845.25;5035619;28;20481;-82
2022/02/20 06:45:00;;;;;;;3.50;1.90;;;5.80;77.10;;;4.46;76.21;97868.22;5033586;28;20506;-82
2022/02/20 06:47:27;;;;;;;1.70;1.20;;;5.80;77.00;;;4.42;76.59;97871.44;5037696;28;20542;-81
2022/02/20 06:49:54;;;;;;;2.83;1.13;;;5.80;77.10;;;4.42;76.30;97876.81;5038122;28;20505;-82
2022/02/20 06:52:20;;;;;;;4.57;1.67;;;5.80;77.10;;;4.29;76.00;97866.69;5036188;28;20533;-83
2022/02/20 06:54:47;;;;;;;2.23;1.10;;;5.70;77.20;;;4.39;76.66;97886.00;5037742;28;20509;-83
2022/02/20 06:57:16;;;;;;;1.83;1.17;;;5.70;77.30;;;4.39;76.31;97888.69;5038039;28;20481;-81
2022/02/20 06:59:44;;;;;;;7.23;1.30;;;5.70;77.30;;;4.45;76.29;97884.47;5037615;28;20525;-80
2022/02/20 07:02:11;;;;;;;2.27;1.00;;;5.80;77.40;;;4.52;75.85;97899.63;5037253;28;20470;-82
2022/02/20 07:04:38;;;;;;;3.30;0.93;;;5.80;77.40;;;4.49;77.01;97894.63;5036090;28;20435;-81
2022/02/20 07:07:05;;;;;;;2.87;1.10;;;5.80;77.50;;;4.42;76.77;97896.34;5037462;28;20470;-81
2022/02/20 07:09:32;;;;;;;2.50;1.30;;;5.80;77.50;;;4.37;76.98;97906.75;5037631;28;20466;-79
2022/02/20 07:11:59;;;;;;;3.60;1.03;;;5.80;77.70;;;4.57;76.18;97914.28;5036998;28;20434;-77
2022/02/20 07:14:26;;;;;;;2.87;1.30;;;5.80;77.60;;;4.39;77.13;97883.34;5035832;28;21000;-74
2022/02/20 07:16:54;;;;;;;3.87;1.83;;;5.90;77.60;;;4.20;76.62;97869.44;5038084;28;20482;-76
2022/02/20 07:19:21;;;;;;;3.33;2.00;;;5.80;77.80;;;4.56;76.83;97926.88;5040627;28;20524;-84
2022/02/20 07:21:49;;;;;;;1.50;1.30;;;5.90;77.90;;;4.51;77.15;97903.31;5045165;28;20759;-89
2022/02/20 07:24:16;;;;;;;5.87;1.70;;;5.90;77.80;;;4.64;77.29;97916.06;5041197;28;20442;-91
2022/02/20 07:26:42;;;;;;;2.30;1.17;;;5.90;77.80;;;4.63;77.30;97927.78;5056143;28;20537;-88
2022/02/20 07:29:09;;;;;;;2.53;1.10;;;5.90;77.70;;;4.60;77.12;97919.28;5040350;28;20458;-87
2022/02/20 07:31:36;;;;;;;4.30;1.00;;;5.90;77.80;;;4.68;76.88;97919.22;5040011;28;20434;-88
2022/02/20 07:34:05;;;;;;;6.17;1.83;;;6.00;77.90;;;4.62;77.02;97898.53;5040082;28;20459;-88
2022/02/20 07:36:32;;;;;;;3.73;1.30;;;6.00;77.90;;;4.64;77.08;97913.41;5038785;28;20447;-87
2022/02/20 07:38:59;;;;;;;1.80;1.20;;;6.00;78.00;;;4.81;76.38;97914.09;5039637;28;20930;-89
2022/02/20 07:41:26;;;;;;;6.00;1.53;;;6.10;77.80;;;4.86;76.64;97902.00;5039357;28;20458;-87
2022/02/20 07:43:53;;;;;;;4.27;1.50;;;6.20;78.20;;;5.04;75.90;97907.84;5039315;28;20530;-86
2022/02/20 07:46:21;;;;;;;3.60;1.80;;;6.30;78.00;;;5.25;74.96;97899.09;5039112;28;20998;-88
2022/02/20 07:48:49;;;;;;;3.00;1.50;;;6.50;77.80;;;5.07;75.39;97910.16;5057337;28;20442;-89
2022/02/20 07:51:18;;;;;;;1.90;1.73;;;6.50;77.10;;;5.19;75.82;97905.22;5076402;28;20487;-88
2022/02/20 07:53:45;;;;;;;4.33;1.20;;;6.50;77.30;;;5.23;74.47;97898.47;5058964;28;20446;-88
2022/02/20 07:56:12;;;;;;;5.77;1.93;;;6.60;77.10;;;5.26;74.77;97883.88;5057783;28;20502;-86
2022/02/20 07:58:40;;;;;;;3.03;1.30;;;6.60;77.00;;;5.34;75.02;97913.25;5046161;28;20443;-89
2022/02/20 08:01:07;;;;;;;7.90;1.90;;;6.70;77.10;;;5.26;75.06;97889.22;5039551;28;20474;-87
2022/02/20 08:03:35;;;;;;;1.20;1.03;;;6.60;77.00;;;5.39;75.34;97901.97;5039109;28;20477;-88
2022/02/20 08:06:03;;;;;;;2.80;1.20;;;6.70;77.20;;;5.52;74.42;97906.66;5039425;28;20481;-88
2022/02/20 08:08:33;;;;;;;3.50;1.33;;;6.80;77.20;;;5.55;73.82;97892.09;5039805;28;20445;-88
2022/02/20 08:11:02;;;;;;;3.07;1.20;;;6.90;76.60;;;5.51;73.77;97919.25;5041015;28;20463;-87
2022/02/20 08:13:29;;;;;;;1.30;0.90;;;6.80;76.60;;;5.52;73.76;97909.34;5041279;28;20531;-87
2022/02/20 08:15:57;;;;;;;3.70;0.93;;;6.90;76.30;;;5.42;74.38;97906.16;5044118;28;20545;-89
2022/02/20 08:18:25;;;;;;;3.07;1.00;;;6.80;76.30;;;5.59;74.09;97899.56;5042771;28;20439;-90
2022/02/20 08:20:52;;;;;;;5.20;0.97;;;6.90;76.60;;;5.64;73.18;97912.41;5041906;28;20450;-89
2022/02/20 08:23:20;;;;;;;3.00;1.20;;;6.90;76.40;;;5.80;72.87;97906.84;5047103;28;20488;-89
2022/02/20 08:25:48;;;;;;;4.60;1.17;;;7.10;76.40;;;5.79;72.93;97904.34;5050744;28;20426;-87
2022/02/20 08:28:16;;;;;;;3.33;1.70;;;7.10;75.80;;;5.78;73.09;97892.81;5055239;28;20477;-86
2022/02/20 08:30:43;;;;;;;4.40;1.27;;;7.10;76.00;;;5.85;72.63;97905.44;5055698;28;20435;-88
2022/02/20 08:33:10;;;;;;;2.50;1.87;;;7.10;75.90;;;5.66;73.43;97897.78;5041327;28;20506;-89
2022/02/20 08:35:38;;;;;;;2.90;1.33;;;7.00;75.90;;;5.87;72.81;97901.56;5040238;28;20576;-89
2022/02/20 08:38:07;;;;;;;2.17;1.20;;;7.10;76.00;;;5.90;72.99;97889.63;5041627;28;20462;-88
2022/02/20 08:40:36;;;;;;;3.37;1.20;;;7.20;75.80;;;5.54;72.96;97843.03;5042333;28;20513;-90
2022/02/20 08:43:05;;;;;;;1.43;1.13;;;7.20;76.00;;;5.74;72.87;97885.31;5038344;28;20493;-90
2022/02/20 08:45:32;;;;;;;1.60;0.80;;;7.20;76.00;;;5.89;72.94;97891.47;5037748;28;21025;-87
2022/02/20 08:47:59;;;;;;;3.47;0.70;;;7.20;75.80;;;6.05;72.23;97890.44;5039894;28;20930;-89
2022/02/20 08:50:26;;;;;;;1.53;1.00;;;7.40;75.70;;;6.32;72.10;97897.97;5039822;28;20984;-88
2022/02/20 08:52:53;;;;;;;0.80;0.67;;;7.50;75.50;;;6.15;72.05;97903.56;5037429;28;20529;-86
2022/02/20 08:55:20;;;;;;;3.77;1.37;;;7.50;75.40;;;6.04;72.07;97910.22;5037077;28;20490;-88
2022/02/20 08:57:47;;;;;;;4.27;1.53;;;7.40;75.40;;;6.15;72.25;97905.41;5039855;28;20462;-88
2022/02/20 09:00:16;;;;;;;1.93;1.10;;;7.40;76.00;;;6.18;71.93;97913.91;5037601;28;21003;-86
2022/02/20 09:02:43;;;;;;;1.87;1.00;;;7.40;75.40;;;6.15;71.99;97900.03;5039717;28;20439;-89
2022/02/20 09:05:10;;;;;;;4.37;0.97;;;7.50;75.40;;;6.11;72.54;97913.00;5038457;28;20972;-88
2022/02/20 09:07:38;;;;;;;1.00;0.80;;;7.40;75.60;;;6.14;72.08;97915.31;5042890;28;20449;-89
2022/02/20 09:10:08;;;;;;;1.67;1.10;;;7.40;75.50;;;6.01;72.49;97897.22;5044559;28;20431;-86
2022/02/20 09:12:36;;;;;;;3.33;1.33;;;7.40;75.60;;;6.21;72.32;97904.63;5045341;28;20415;-79
2022/02/20 09:15:03;;;;;;;3.63;1.00;;;7.40;75.60;;;6.48;71.65;97904.91;5046795;28;20462;-83
2022/02/20 09:17:33;;;;;;;1.67;0.87;;;7.70;75.50;;;6.37;71.80;97900.88;5047336;28;20478;-82
2022/02/20 09:20:00;;;;;;;3.17;0.97;;;7.70;75.10;;;6.40;71.42;97905.88;5053641;28;20454;-83
2022/02/20 09:22:27;;;;;;;1.97;1.00;;;7.80;75.10;;;6.32;71.85;97896.09;5050915;28;20434;-85
2022/02/20 09:24:55;;;;;;;2.97;1.47;;;7.70;75.60;;;6.33;72.21;97915.72;5048892;28;20469;-85
2022/02/20 09:27:23;;;;;;;2.60;1.43;;;7.60;75.20;;;6.25;71.88;97905.94;5046085;28;20438;-83
2022/02/20 09:29:50;;;;;;;3.73;1.00;;;7.50;75.20;;;6.46;71.61;97909.63;5044297;28;20514;-82
2022/02/20 09:32:21;;;;;;;2.47;0.90;;;7.70;75.30;;;6.60;70.86;97913.31;5047184;28;20454;-83
2022/02/20 09:34:49;;;;;;;1.50;1.07;;;7.80;75.00;;;6.68;72.28;97915.84;5044796;28;20455;-81
2022/02/20 09:37:16;;;;;;;1.60;1.07;;;7.80;76.00;;;6.51;72.12;97918.78;5039956;28;20438;-80
2022/02/20 09:39:43;;;;;;;2.53;1.30;;;7.70;75.50;;;6.62;71.58;97914.75;5037660;28;20903;-81
2022/02/20 09:42:11;;;;;;;2.20;0.90;;;7.80;75.60;;;6.36;71.52;97918.81;5039298;28;20438;-83
2022/02/20 09:44:39;;;;;;;2.57;1.23;;;7.70;75.10;;;6.39;71.33;97888.09;5040324;28;20501;-83
2022/02/20 09:47:07;;;;;;;1.93;1.10;;;7.70;75.00;;;6.42;70.89;97898.44;5038200;28;20438;-83
2022/02/20 09:49:34;;;;;;;2.53;1.50;;;7.80;74.70;;;6.45;71.73;97898.09;5037821;28;20442;-83
2022/02/20 09:52:04;;;;;;;1.67;1.20;;;7.70;75.00;;;6.53;71.05;97897.13;5040083;28;20453;-83
2022/02/20 09:54:32;;;;;;;2.43;0.93;;;7.80;74.70;;;6.25;72.35;97897.88;5040588;28;20507;-84
2022/02/20 09:56:59;;;;;;;2.97;1.10;;;7.60;74.80;;;6.49;71.38;97898.50;5040407;28;20477;-83
2022/02/20 09:59:27;;;;;;;1.40;1.23;;;7.70;75.00;;;6.52;70.72;97898.97;5037564;28;20438;-83
2022/02/20 10:02:06;;;;;;;3.70;1.63;;;7.70;74.60;;;6.36;71.10;97889.31;5038060;28;20442;-83
2022/02/20 10:04:41;;;;;;;5.90;1.80;;;7.70;74.60;;;6.30;71.81;97878.53;5038852;28;20916;-82
2022/02/20 10:07:29;;;;;;;1.70;0.80;;;7.60;74.60;;;6.52;71.07;97877.50;5038593;28;20788;-83
2022/02/20 10:09:57;;;;;;;1.90;0.80;;;7.70;74.50;;;6.62;69.78;97881.72;5038405;28;20439;-84
2022/02/20 10:12:27;;;;;;;3.87;1.17;;;7.90;74.70;;;6.62;70.17;97890.59;5039699;28;20934;-77
2022/02/20 10:14:59;;;;;;;1.70;0.93;;;7.90;74.20;;;6.44;70.88;97864.19;5035611;28;20489;-78
2022/02/20 10:17:27;;;;;;;5.03;1.87;;;7.90;74.10;;;6.36;71.00;97848.25;5036715;28;20529;-77
2022/02/20 10:20:02;;;;;;;2.17;1.13;;;7.80;74.30;;;6.57;70.97;97873.41;5037514;28;20512;-77
2022/02/20 10:22:34;;;;;;;2.10;1.00;;;7.70;74.50;;;6.49;70.67;97867.16;5041799;28;20530;-75
2022/02/20 10:25:10;;;;;;;1.80;1.00;;;7.80;74.20;;;6.45;71.18;97857.84;5047662;28;20489;-74
2022/02/20 10:27:47;;;;;;;1.53;1.00;;;7.70;74.40;;;6.66;70.61;97861.50;5046913;28;20506;-76
2022/02/20 10:30:23;;;;;;;1.07;0.70;;;7.90;74.40;;;6.69;70.13;97855.75;5044724;28;20426;-75
2022/02/20 10:33:06;;;;;;;2.20;0.90;;;7.90;74.10;;;6.90;69.68;97875.50;5038587;28;20945;-74
2022/02/20 10:35:36;;;;;;;4.23;1.03;;;8.10;74.10;;;6.96;69.00;97864.00;5039643;28;20531;-86